SPKAS EPZP-EPZP
Flight info
| Callsign | SPKAS |
|---|---|
| Flight time | 0h 12m |
| Altitude | 2000 |
| Route | DCT |
| Aircraft | P208/L-SY/C |
Departure
| Time | 2026-04-19 10:56 |
|---|---|
| Airport | Zielona Góra-Przylep Airfield (EPZP) |
Arrival
| Time | 2026-04-19 11:08 |
|---|---|
| Airport | Zielona Góra-Przylep Airfield (EPZP) |
| Time | Latitude | Longitude | Altitude | Speed | Heading |
|---|---|---|---|---|---|
| 2026-04-19 10:44 | 51.97508 | 15.46437 | 261 ft | 0 kts | 277° |
| 2026-04-19 10:52 | 51.97508 | 15.46436 | 266 ft | 1 kts | 278° |
| 2026-04-19 10:52 | 51.97521 | 15.46317 | 256 ft | 15 kts | 284° |
| 2026-04-19 10:53 | 51.97535 | 15.46134 | 255 ft | 17 kts | 277° |
| 2026-04-19 10:53 | 51.97542 | 15.45962 | 255 ft | 12 kts | 272° |
| 2026-04-19 10:53 | 51.97546 | 15.45838 | 250 ft | 12 kts | 275° |
| 2026-04-19 10:53 | 51.97558 | 15.45766 | 247 ft | 0 kts | 328° |
| 2026-04-19 10:54 | 51.97560 | 15.45765 | 247 ft | 1 kts | 349° |
| 2026-04-19 10:54 | 51.97580 | 15.45760 | 245 ft | 8 kts | 350° |
| 2026-04-19 10:54 | 51.97662 | 15.45735 | 244 ft | 11 kts | 1° |
| 2026-04-19 10:54 | 51.97705 | 15.45805 | 246 ft | 24 kts | 60° |
| 2026-04-19 10:55 | 51.97856 | 15.46242 | 249 ft | 63 kts | 61° |
| 2026-04-19 10:55 | 51.98113 | 15.46909 | 381 ft | 72 kts | 57° |
| 2026-04-19 10:55 | 51.98420 | 15.47587 | 592 ft | 76 kts | 54° |
| 2026-04-19 10:55 | 51.98877 | 15.47834 | 813 ft | 80 kts | 341° |
| 2026-04-19 10:56 | 51.99378 | 15.47336 | 984 ft | 90 kts | 330° |
| 2026-04-19 10:56 | 51.99600 | 15.46500 | 1153 ft | 89 kts | 235° |
| 2026-04-19 10:56 | 51.99243 | 15.45593 | 1117 ft | 105 kts | 235° |
| 2026-04-19 10:56 | 51.98872 | 15.44552 | 1131 ft | 107 kts | 231° |
| 2026-04-19 10:57 | 51.98413 | 15.43558 | 1040 ft | 111 kts | 227° |
| 2026-04-19 10:57 | 51.97836 | 15.43037 | 988 ft | 87 kts | 166° |
| 2026-04-19 10:57 | 51.97399 | 15.43498 | 962 ft | 66 kts | 135° |
| 2026-04-19 10:57 | 51.97367 | 15.44267 | 789 ft | 82 kts | 84° |
| 2026-04-19 10:58 | 51.97554 | 15.45221 | 439 ft | 92 kts | 61° |
| 2026-04-19 10:58 | 51.97833 | 15.45984 | 249 ft | 62 kts | 62° |
| 2026-04-19 10:58 | 51.98006 | 15.46581 | 254 ft | 69 kts | 67° |
| 2026-04-19 10:58 | 51.98236 | 15.47253 | 450 ft | 65 kts | 57° |
| 2026-04-19 10:59 | 51.98523 | 15.47769 | 690 ft | 62 kts | 35° |
| 2026-04-19 10:59 | 51.98963 | 15.47429 | 741 ft | 83 kts | 317° |
| 2026-04-19 10:59 | 51.99316 | 15.46699 | 880 ft | 84 kts | 271° |
| 2026-04-19 10:59 | 51.99158 | 15.45789 | 989 ft | 88 kts | 246° |
| 2026-04-19 11:00 | 51.98920 | 15.44866 | 1128 ft | 89 kts | 240° |
| 2026-04-19 11:00 | 51.98601 | 15.43974 | 1195 ft | 93 kts | 233° |
| 2026-04-19 11:00 | 51.98201 | 15.43242 | 1195 ft | 69 kts | 209° |
| 2026-04-19 11:00 | 51.97837 | 15.43500 | 996 ft | 65 kts | 137° |
| 2026-04-19 11:01 | 51.97528 | 15.43976 | 859 ft | 62 kts | 136° |
| 2026-04-19 11:01 | 51.97374 | 15.44608 | 761 ft | 73 kts | 66° |
| 2026-04-19 11:01 | 51.97629 | 15.45375 | 411 ft | 76 kts | 64° |
| 2026-04-19 11:01 | 51.97855 | 15.46050 | 249 ft | 57 kts | 64° |
| 2026-04-19 11:02 | 51.98015 | 15.46625 | 264 ft | 65 kts | 66° |
| 2026-04-19 11:02 | 51.98258 | 15.47274 | 427 ft | 68 kts | 56° |
| 2026-04-19 11:02 | 51.98572 | 15.47857 | 636 ft | 69 kts | 50° |
| 2026-04-19 11:02 | 51.99026 | 15.47948 | 777 ft | 84 kts | 329° |
| 2026-04-19 11:03 | 51.99531 | 15.47400 | 992 ft | 90 kts | 325° |
| 2026-04-19 11:03 | 51.99563 | 15.46444 | 1082 ft | 99 kts | 236° |
| 2026-04-19 11:03 | 51.99221 | 15.45448 | 1130 ft | 105 kts | 234° |
| 2026-04-19 11:03 | 51.98823 | 15.44446 | 1160 ft | 96 kts | 230° |
| 2026-04-19 11:04 | 51.98391 | 15.43719 | 1165 ft | 87 kts | 189° |
| 2026-04-19 11:04 | 51.97875 | 15.44135 | 1004 ft | 88 kts | 141° |
| 2026-04-19 11:04 | 51.97517 | 15.44798 | 717 ft | 71 kts | 91° |
| 2026-04-19 11:04 | 51.97692 | 15.45592 | 307 ft | 77 kts | 66° |
| 2026-04-19 11:05 | 51.97894 | 15.46225 | 249 ft | 57 kts | 64° |
| 2026-04-19 11:05 | 51.98101 | 15.46893 | 375 ft | 67 kts | 62° |
| 2026-04-19 11:05 | 51.98382 | 15.47488 | 586 ft | 66 kts | 53° |
| 2026-04-19 11:05 | 51.98759 | 15.47882 | 738 ft | 78 kts | 356° |
| 2026-04-19 11:06 | 51.99261 | 15.47322 | 856 ft | 93 kts | 319° |
| 2026-04-19 11:06 | 51.99306 | 15.46404 | 962 ft | 93 kts | 236° |
| 2026-04-19 11:06 | 51.99006 | 15.45409 | 980 ft | 108 kts | 238° |
| 2026-04-19 11:06 | 51.98647 | 15.44382 | 1115 ft | 101 kts | 230° |
| 2026-04-19 11:07 | 51.98200 | 15.43503 | 1164 ft | 97 kts | 199° |
| 2026-04-19 11:07 | 51.97640 | 15.43771 | 1113 ft | 89 kts | 142° |
| 2026-04-19 11:07 | 51.97433 | 15.44688 | 728 ft | 104 kts | 73° |
| 2026-04-19 11:07 | 51.97724 | 15.45677 | 282 ft | 83 kts | 66° |
| 2026-04-19 11:08 | 51.97919 | 15.46328 | 245 ft | 49 kts | 67° |
| 2026-04-19 11:08 | 51.98105 | 15.46949 | 302 ft | 70 kts | 63° |
| 2026-04-19 11:08 | 51.98400 | 15.47588 | 489 ft | 71 kts | 48° |
| 2026-04-19 11:08 | 51.98720 | 15.48164 | 674 ft | 69 kts | 80° |
| 2026-04-19 11:09 | 51.98607 | 15.48832 | 952 ft | 60 kts | 133° |
| 2026-04-19 11:09 | 51.98320 | 15.49333 | 1147 ft | 66 kts | 128° |
| 2026-04-19 11:09 | 51.98060 | 15.49903 | 1376 ft | 59 kts | 124° |
| 2026-04-19 11:09 | 51.97842 | 15.50491 | 1465 ft | 69 kts | 117° |
| 2026-04-19 11:10 | 51.97637 | 15.51330 | 1466 ft | 87 kts | 112° |
| 2026-04-19 11:10 | 51.97462 | 15.52300 | 1573 ft | 93 kts | 108° |
| 2026-04-19 11:10 | 51.97265 | 15.53289 | 1743 ft | 89 kts | 131° |
| 2026-04-19 11:10 | 51.96705 | 15.53749 | 1905 ft | 93 kts | 159° |
| 2026-04-19 11:11 | 51.96113 | 15.54115 | 2024 ft | 91 kts | 153° |
| 2026-04-19 11:11 | 51.95486 | 15.54541 | 1997 ft | 102 kts | 153° |
| 2026-04-19 11:11 | 51.94840 | 15.55027 | 1897 ft | 103 kts | 155° |
| 2026-04-19 11:11 | 51.94188 | 15.55459 | 1855 ft | 101 kts | 156° |
| 2026-04-19 11:12 | 51.93505 | 15.55688 | 1856 ft | 104 kts | 179° |
| 2026-04-19 11:12 | 51.92785 | 15.55635 | 1868 ft | 104 kts | 178° |
| 2026-04-19 11:12 | 51.92077 | 15.55587 | 1872 ft | 100 kts | 177° |
| 2026-04-19 11:12 | 51.91356 | 15.55572 | 1868 ft | 106 kts | 179° |
| 2026-04-19 11:13 | 51.90632 | 15.55414 | 1864 ft | 107 kts | 198° |
| 2026-04-19 11:13 | 51.89983 | 15.54832 | 1859 ft | 107 kts | 211° |
| 2026-04-19 11:13 | 51.89617 | 15.53792 | 1858 ft | 115 kts | 265° |
| 2026-04-19 11:13 | 51.89774 | 15.52542 | 1884 ft | 113 kts | 282° |
| 2026-04-19 11:14 | 51.89956 | 15.51312 | 1959 ft | 116 kts | 281° |
| 2026-04-19 11:14 | 51.90131 | 15.50030 | 1964 ft | 117 kts | 280° |
| 2026-04-19 11:14 | 51.90316 | 15.48741 | 1969 ft | 113 kts | 283° |
| 2026-04-19 11:14 | 51.90861 | 15.47966 | 1997 ft | 115 kts | 353° |
| 2026-04-19 11:15 | 51.91708 | 15.47761 | 1718 ft | 130 kts | 353° |
| 2026-04-19 11:15 | 51.92552 | 15.47426 | 1660 ft | 121 kts | 346° |
| 2026-04-19 11:15 | 51.93301 | 15.46835 | 1632 ft | 118 kts | 330° |
| 2026-04-19 11:15 | 51.94018 | 15.46221 | 1632 ft | 116 kts | 339° |
| 2026-04-19 11:16 | 51.94773 | 15.45624 | 1486 ft | 123 kts | 327° |
| 2026-04-19 11:16 | 51.95476 | 15.45040 | 1583 ft | 100 kts | 339° |
| 2026-04-19 11:16 | 51.96183 | 15.44859 | 1266 ft | 117 kts | 346° |
| 2026-04-19 11:16 | 51.96953 | 15.44583 | 780 ft | 98 kts | 351° |
| 2026-04-19 11:17 | 51.97440 | 15.44895 | 576 ft | 77 kts | 61° |
| 2026-04-19 11:17 | 51.97696 | 15.45676 | 291 ft | 77 kts | 66° |
| 2026-04-19 11:17 | 51.97890 | 15.46290 | 247 ft | 50 kts | 71° |
| 2026-04-19 11:17 | 51.98014 | 15.46955 | 349 ft | 62 kts | 67° |
| 2026-04-19 11:18 | 51.98220 | 15.47575 | 544 ft | 66 kts | 62° |
| 2026-04-19 11:18 | 51.98338 | 15.48317 | 764 ft | 67 kts | 94° |
| 2026-04-19 11:18 | 51.98278 | 15.49036 | 1058 ft | 61 kts | 103° |
| 2026-04-19 11:18 | 51.98115 | 15.49678 | 1143 ft | 70 kts | 126° |
| 2026-04-19 11:19 | 51.97857 | 15.50369 | 1199 ft | 72 kts | 121° |
| 2026-04-19 11:19 | 51.97629 | 15.51139 | 1280 ft | 81 kts | 117° |
| 2026-04-19 11:19 | 51.97271 | 15.51844 | 1300 ft | 84 kts | 138° |
| 2026-04-19 11:19 | 51.96814 | 15.52496 | 1281 ft | 89 kts | 138° |
| 2026-04-19 11:20 | 51.96373 | 15.53184 | 1375 ft | 88 kts | 136° |
| 2026-04-19 11:20 | 51.95938 | 15.53859 | 1579 ft | 85 kts | 137° |
| 2026-04-19 11:20 | 51.95489 | 15.54518 | 1654 ft | 91 kts | 138° |
| 2026-04-19 11:20 | 51.94917 | 15.55127 | 1579 ft | 97 kts | 154° |
| 2026-04-19 11:21 | 51.94315 | 15.55582 | 1572 ft | 98 kts | 160° |
| 2026-04-19 11:21 | 51.93650 | 15.55545 | 1629 ft | 100 kts | 189° |
| 2026-04-19 11:21 | 51.92970 | 15.55155 | 1598 ft | 103 kts | 194° |
| 2026-04-19 11:22 | 51.91826 | 15.54078 | 1657 ft | 105 kts | 253° |
| 2026-04-19 11:22 | 51.91594 | 15.52944 | 1634 ft | 106 kts | 247° |
| 2026-04-19 11:22 | 51.91317 | 15.51808 | 1672 ft | 108 kts | 240° |
| 2026-04-19 11:22 | 51.91307 | 15.50630 | 1733 ft | 112 kts | 277° |
| 2026-04-19 11:23 | 51.91533 | 15.49499 | 1754 ft | 96 kts | 304° |
| 2026-04-19 11:23 | 51.91994 | 15.48577 | 1704 ft | 110 kts | 309° |
| 2026-04-19 11:23 | 51.92474 | 15.47587 | 1657 ft | 109 kts | 305° |
| 2026-04-19 11:23 | 51.93011 | 15.46739 | 1616 ft | 112 kts | 332° |
| 2026-04-19 11:24 | 51.93635 | 15.46407 | 1541 ft | 77 kts | 351° |
| 2026-04-19 11:24 | 51.94256 | 15.46272 | 1446 ft | 104 kts | 2° |
| 2026-04-19 11:24 | 51.94986 | 15.46433 | 1450 ft | 109 kts | 17° |
| 2026-04-19 11:24 | 51.95697 | 15.46804 | 1297 ft | 111 kts | 29° |
| 2026-04-19 11:25 | 51.96350 | 15.47381 | 1252 ft | 105 kts | 49° |
| 2026-04-19 11:25 | 51.96942 | 15.47539 | 1409 ft | 97 kts | 19° |
| 2026-04-19 11:25 | 51.97679 | 15.47791 | 1189 ft | 119 kts | 17° |
| 2026-04-19 11:25 | 51.98507 | 15.47822 | 1046 ft | 116 kts | 333° |
| 2026-04-19 11:26 | 51.99036 | 15.47113 | 975 ft | 88 kts | 319° |
| 2026-04-19 11:26 | 51.99383 | 15.46200 | 871 ft | 104 kts | 253° |
| 2026-04-19 11:26 | 51.99082 | 15.45252 | 901 ft | 93 kts | 225° |
| 2026-04-19 11:26 | 51.98679 | 15.44425 | 952 ft | 93 kts | 223° |
| 2026-04-19 11:27 | 51.98267 | 15.43636 | 1041 ft | 89 kts | 222° |
| 2026-04-19 11:27 | 51.97787 | 15.43731 | 935 ft | 85 kts | 134° |
| 2026-04-19 11:27 | 51.97438 | 15.44474 | 1111 ft | 81 kts | 109° |
| 2026-04-19 11:27 | 51.97651 | 15.45311 | 1285 ft | 91 kts | 59° |
| 2026-04-19 11:28 | 51.98026 | 15.46198 | 1359 ft | 96 kts | 59° |
| 2026-04-19 11:28 | 51.98416 | 15.47064 | 1455 ft | 92 kts | 56° |
| 2026-04-19 11:28 | 51.98967 | 15.47783 | 1237 ft | 112 kts | 39° |
| 2026-04-19 11:28 | 51.99592 | 15.47610 | 1187 ft | 105 kts | 278° |
| 2026-04-19 11:29 | 51.99311 | 15.46628 | 1088 ft | 96 kts | 230° |
| 2026-04-19 11:29 | 51.98890 | 15.45676 | 1054 ft | 105 kts | 221° |
| 2026-04-19 11:29 | 51.98669 | 15.44528 | 994 ft | 117 kts | 257° |
| 2026-04-19 11:29 | 51.98516 | 15.43387 | 1013 ft | 78 kts | 242° |
| 2026-04-19 11:30 | 51.98370 | 15.42903 | 924 ft | 69 kts | 214° |
| 2026-04-19 11:30 | 51.97971 | 15.43135 | 792 ft | 66 kts | 136° |
| 2026-04-19 11:30 | 51.97641 | 15.43685 | 805 ft | 65 kts | 126° |
| 2026-04-19 11:30 | 51.97453 | 15.44356 | 710 ft | 67 kts | 84° |
| 2026-04-19 11:31 | 51.97586 | 15.45145 | 409 ft | 76 kts | 58° |
| 2026-04-19 11:31 | 51.97822 | 15.45852 | 253 ft | 62 kts | 64° |
| 2026-04-19 11:31 | 51.97968 | 15.46279 | 245 ft | 15 kts | 78° |
| 2026-04-19 11:31 | 51.97916 | 15.46407 | 246 ft | 24 kts | 141° |
| 2026-04-19 11:32 | 51.97832 | 15.46454 | 250 ft | 4 kts | 239° |
| 2026-04-19 11:32 | 51.97765 | 15.46287 | 252 ft | 23 kts | 231° |
| 2026-04-19 11:32 | 51.97675 | 15.46216 | 250 ft | 7 kts | 118° |
| 2026-04-19 11:32 | 51.97653 | 15.46285 | 254 ft | 1 kts | 145° |
| 2026-04-19 11:33 | 51.97587 | 15.46370 | 257 ft | 13 kts | 139° |
| 2026-04-19 11:33 | 51.97542 | 15.46422 | 256 ft | 7 kts | 149° |
| 2026-04-19 11:33 | 51.97526 | 15.46447 | 256 ft | 0 kts | 188° |
| 2026-04-19 11:33 | 51.97521 | 15.46440 | 256 ft | 2 kts | 316° |